Terminal Aerodrome Forecast
Issued by NWS Wakefield, VA

Home | Current Version | Previous Version | Text Only | Print | Product List | Glossary On
Versions: 1 2 3 4 5 6 7 8 9 10 11 12 13 14 15 16 17 18 19 20
116
FTUS41 KAKQ 250520
TAFORF
TAF
KORF 250520Z 2506/2606 22006KT P6SM SCT090
     FM251400 26006KT P6SM SKC
     FM252000 22004KT P6SM SKC
     FM252300 19005KT P6SM SKC=

USA.gov is the U.S. government's official web portal to all federal, state and local government web resources and services.